sensor_id;sensor_type;location;lat;lon;timestamp;pressure;altitude;pressure_sealevel;temperature;humidity
22047;BME280;11187;49.412;20.956;2022-09-14T00:00:06;94500.88;;;12.90;100.00
22047;BME280;11187;49.412;20.956;2022-09-14T00:02:53;94503.50;;;12.89;100.00
22047;BME280;11187;49.412;20.956;2022-09-14T00:05:27;94503.63;;;12.86;100.00
22047;BME280;11187;49.412;20.956;2022-09-14T00:08:14;94501.94;;;12.85;100.00
22047;BME280;11187;49.412;20.956;2022-09-14T00:10:47;94490.94;;;12.81;100.00
22047;BME280;11187;49.412;20.956;2022-09-14T00:13:35;94492.78;;;12.78;100.00
22047;BME280;11187;49.412;20.956;2022-09-14T00:16:21;94496.34;;;12.73;100.00
22047;BME280;11187;49.412;20.956;2022-09-14T00:19:20;94501.66;;;12.69;100.00
22047;BME280;11187;49.412;20.956;2022-09-14T00:22:08;94494.91;;;12.66;100.00
22047;BME280;11187;49.412;20.956;2022-09-14T00:25:02;94492.34;;;12.66;100.00
22047;BME280;11187;49.412;20.956;2022-09-14T00:27:56;94500.03;;;12.66;100.00
22047;BME280;11187;49.412;20.956;2022-09-14T00:30:29;94490.66;;;12.65;100.00
22047;BME280;11187;49.412;20.956;2022-09-14T00:33:16;94485.72;;;12.61;100.00
22047;BME280;11187;49.412;20.956;2022-09-14T00:35:49;94479.78;;;12.59;100.00
22047;BME280;11187;49.412;20.956;2022-09-14T00:38:36;94473.81;;;12.58;100.00
22047;BME280;11187;49.412;20.956;2022-09-14T00:41:12;94477.25;;;12.57;100.00
22047;BME280;11187;49.412;20.956;2022-09-14T00:44:04;94473.09;;;12.54;100.00
22047;BME280;11187;49.412;20.956;2022-09-14T00:46:39;94476.66;;;12.50;100.00
22047;BME280;11187;49.412;20.956;2022-09-14T00:49:33;94470.03;;;12.45;100.00
22047;BME280;11187;49.412;20.956;2022-09-14T00:52:29;94472.69;;;12.42;100.00
22047;BME280;11187;49.412;20.956;2022-09-14T00:55:23;94474.47;;;12.40;100.00
22047;BME280;11187;49.412;20.956;2022-09-14T00:57:56;94476.19;;;12.39;100.00
22047;BME280;11187;49.412;20.956;2022-09-14T01:00:50;94476.19;;;12.39;100.00
22047;BME280;11187;49.412;20.956;2022-09-14T01:03:23;94483.06;;;12.39;100.00
22047;BME280;11187;49.412;20.956;2022-09-14T01:12:24;94491.66;;;12.38;100.00
22047;BME280;11187;49.412;20.956;2022-09-14T01:18:17;94484.00;;;12.36;100.00
22047;BME280;11187;49.412;20.956;2022-09-14T01:21:34;94479.75;;;12.35;100.00
22047;BME280;11187;49.412;20.956;2022-09-14T01:24:43;94477.25;;;12.33;100.00
22047;BME280;11187;49.412;20.956;2022-09-14T01:27:40;94478.22;;;12.31;100.00
22047;BME280;11187;49.412;20.956;2022-09-14T01:30:37;94479.09;;;12.30;100.00
22047;BME280;11187;49.412;20.956;2022-09-14T01:33:38;94473.13;;;12.29;100.00
22047;BME280;11187;49.412;20.956;2022-09-14T01:36:14;94479.13;;;12.28;100.00
22047;BME280;11187;49.412;20.956;2022-09-14T01:39:02;94464.63;;;12.27;100.00
22047;BME280;11187;49.412;20.956;2022-09-14T01:41:36;94466.41;;;12.25;100.00
22047;BME280;11187;49.412;20.956;2022-09-14T01:44:35;94461.34;;;12.24;100.00
22047;BME280;11187;49.412;20.956;2022-09-14T01:47:36;94453.75;;;12.21;100.00
22047;BME280;11187;49.412;20.956;2022-09-14T01:50:37;94463.34;;;12.16;100.00
22047;BME280;11187;49.412;20.956;2022-09-14T01:53:40;94451.63;;;12.08;100.00
22047;BME280;11187;49.412;20.956;2022-09-14T01:56:29;94449.94;;;12.07;100.00
22047;BME280;11187;49.412;20.956;2022-09-14T01:59:29;94449.31;;;12.01;100.00
22047;BME280;11187;49.412;20.956;2022-09-14T02:02:34;94448.59;;;11.97;100.00
22047;BME280;11187;49.412;20.956;2022-09-14T02:05:22;94446.97;;;11.95;100.00
22047;BME280;11187;49.412;20.956;2022-09-14T02:08:12;94447.03;;;11.93;100.00
22047;BME280;11187;49.412;20.956;2022-09-14T02:10:45;94447.13;;;11.90;100.00
22047;BME280;11187;49.412;20.956;2022-09-14T02:13:32;94444.63;;;11.88;100.00
22047;BME280;11187;49.412;20.956;2022-09-14T02:16:05;94447.97;;;11.90;100.00
22047;BME280;11187;49.412;20.956;2022-09-14T02:18:52;94449.69;;;11.90;100.00
22047;BME280;11187;49.412;20.956;2022-09-14T02:21:28;94447.13;;;11.90;100.00
22047;BME280;11187;49.412;20.956;2022-09-14T02:24:15;94445.41;;;11.90;100.00
22047;BME280;11187;49.412;20.956;2022-09-14T02:26:50;94441.16;;;11.89;100.00
22047;BME280;11187;49.412;20.956;2022-09-14T02:29:44;94432.66;;;11.87;100.00
22047;BME280;11187;49.412;20.956;2022-09-14T02:32:25;94426.66;;;11.87;100.00
22047;BME280;11187;49.412;20.956;2022-09-14T02:35:59;94430.13;;;11.86;100.00
22047;BME280;11187;49.412;20.956;2022-09-14T02:46:54;94425.38;;;11.75;100.00
22047;BME280;11187;49.412;20.956;2022-09-14T02:50:09;94422.84;;;11.74;100.00
22047;BME280;11187;49.412;20.956;2022-09-14T02:52:52;94419.56;;;11.70;100.00
22047;BME280;11187;49.412;20.956;2022-09-14T02:55:56;94418.81;;;11.66;100.00
22047;BME280;11187;49.412;20.956;2022-09-14T02:58:51;94417.19;;;11.64;100.00
22047;BME280;11187;49.412;20.956;2022-09-14T03:01:24;94420.72;;;11.61;100.00
22047;BME280;11187;49.412;20.956;2022-09-14T03:04:19;94419.91;;;11.59;100.00
22047;BME280;11187;49.412;20.956;2022-09-14T03:07:13;94423.38;;;11.58;100.00
22047;BME280;11187;49.412;20.956;2022-09-14T03:09:46;94426.94;;;11.54;100.00
22047;BME280;11187;49.412;20.956;2022-09-14T03:12:40;94431.28;;;11.52;100.00
22047;BME280;11187;49.412;20.956;2022-09-14T03:15:34;94427.00;;;11.51;100.00
22047;BME280;11187;49.412;20.956;2022-09-14T03:18:07;94423.66;;;11.49;100.00
22047;BME280;11187;49.412;20.956;2022-09-14T03:21:01;94432.25;;;11.48;100.00
22047;BME280;11187;49.412;20.956;2022-09-14T03:23:40;94428.91;;;11.46;100.00
22047;BME280;11187;49.412;20.956;2022-09-14T03:26:34;94430.75;;;11.42;100.00
22047;BME280;11187;49.412;20.956;2022-09-14T03:29:28;94433.34;;;11.41;100.00
22047;BME280;11187;49.412;20.956;2022-09-14T03:32:22;94429.94;;;11.40;100.00
22047;BME280;11187;49.412;20.956;2022-09-14T03:34:55;94436.03;;;11.38;100.00
22047;BME280;11187;49.412;20.956;2022-09-14T03:37:43;94425.00;;;11.34;100.00
22047;BME280;11187;49.412;20.956;2022-09-14T03:40:16;94429.34;;;11.32;100.00
22047;BME280;11187;49.412;20.956;2022-09-14T03:43:03;94428.56;;;11.30;100.00
22047;BME280;11187;49.412;20.956;2022-09-14T03:45:37;94418.34;;;11.28;100.00
22047;BME280;11187;49.412;20.956;2022-09-14T03:48:24;94423.47;;;11.28;100.00
22047;BME280;11187;49.412;20.956;2022-09-14T03:51:01;94420.09;;;11.28;100.00
22047;BME280;11187;49.412;20.956;2022-09-14T03:53:56;94415.91;;;11.25;100.00
22047;BME280;11187;49.412;20.956;2022-09-14T03:56:29;94417.78;;;11.20;100.00
22047;BME280;11187;49.412;20.956;2022-09-14T03:59:16;94418.72;;;11.18;100.00
22047;BME280;11187;49.412;20.956;2022-09-14T04:01:49;94411.09;;;11.15;100.00
22047;BME280;11187;49.412;20.956;2022-09-14T04:04:43;94410.28;;;11.14;100.00
22047;BME280;11187;49.412;20.956;2022-09-14T04:07:37;94420.56;;;11.13;100.00
22047;BME280;11187;49.412;20.956;2022-09-14T04:10:39;94416.34;;;11.12;100.00
22047;BME280;11187;49.412;20.956;2022-09-14T04:13:33;94424.06;;;11.10;100.00
22047;BME280;11187;49.412;20.956;2022-09-14T04:16:27;94425.00;;;11.07;100.00
22047;BME280;11187;49.412;20.956;2022-09-14T04:19:21;94422.59;;;11.03;100.00
22047;BME280;11187;49.412;20.956;2022-09-14T04:21:54;94425.25;;;11.00;100.00
22047;BME280;11187;49.412;20.956;2022-09-14T04:24:41;94421.00;;;10.99;100.00
22047;BME280;11187;49.412;20.956;2022-09-14T04:27:14;94421.06;;;10.97;100.00
22047;BME280;11187;49.412;20.956;2022-09-14T04:30:01;94425.31;;;10.97;100.00
22047;BME280;11187;49.412;20.956;2022-09-14T04:32:34;94426.25;;;10.94;100.00
22047;BME280;11187;49.412;20.956;2022-09-14T04:35:28;94426.34;;;10.93;100.00
22047;BME280;11187;49.412;20.956;2022-09-14T04:38:01;94428.81;;;10.94;100.00
22047;BME280;11187;49.412;20.956;2022-09-14T04:40:48;94429.69;;;10.95;100.00
22047;BME280;11187;49.412;20.956;2022-09-14T04:43:22;94433.00;;;10.97;100.00
22047;BME280;11187;49.412;20.956;2022-09-14T04:46:19;94431.31;;;10.97;100.00
22047;BME280;11187;49.412;20.956;2022-09-14T04:49:16;94424.50;;;10.96;100.00
22047;BME280;11187;49.412;20.956;2022-09-14T04:51:53;94427.03;;;10.98;100.00
22047;BME280;11187;49.412;20.956;2022-09-14T04:54:47;94435.53;;;10.98;100.00
22047;BME280;11187;49.412;20.956;2022-09-14T04:57:41;94440.59;;;11.01;100.00
22047;BME280;11187;49.412;20.956;2022-09-14T05:00:14;94444.00;;;11.00;100.00
22047;BME280;11187;49.412;20.956;2022-09-14T05:03:03;94441.44;;;11.00;100.00
22047;BME280;11187;49.412;20.956;2022-09-14T05:05:36;94442.34;;;10.99;100.00
22047;BME280;11187;49.412;20.956;2022-09-14T05:08:23;94435.47;;;11.01;100.00
22047;BME280;11187;49.412;20.956;2022-09-14T05:10:57;94439.53;;;11.07;100.00
22047;BME280;11187;49.412;20.956;2022-09-14T05:13:51;94441.16;;;11.10;100.00
22047;BME280;11187;49.412;20.956;2022-09-14T05:16:33;94437.66;;;11.12;100.00
22047;BME280;11187;49.412;20.956;2022-09-14T05:19:27;94435.06;;;11.14;100.00
22047;BME280;11187;49.412;20.956;2022-09-14T05:22:00;94439.22;;;11.18;100.00
22047;BME280;11187;49.412;20.956;2022-09-14T05:24:47;94416.88;;;11.21;100.00
22047;BME280;11187;49.412;20.956;2022-09-14T05:27:20;94409.03;;;11.26;100.00
22047;BME280;11187;49.412;20.956;2022-09-14T05:30:07;94402.06;;;11.31;100.00
22047;BME280;11187;49.412;20.956;2022-09-14T05:32:40;94401.84;;;11.37;100.00
22047;BME280;11187;49.412;20.956;2022-09-14T05:35:27;94404.22;;;11.43;100.00
22047;BME280;11187;49.412;20.956;2022-09-14T05:38:00;94413.41;;;11.49;100.00
22047;BME280;11187;49.412;20.956;2022-09-14T05:40:47;94413.28;;;11.54;100.00
22047;BME280;11187;49.412;20.956;2022-09-14T05:43:20;94403.75;;;11.57;100.00
22047;BME280;11187;49.412;20.956;2022-09-14T05:46:10;94393.34;;;11.62;100.00
22047;BME280;11187;49.412;20.956;2022-09-14T05:48:47;94397.44;;;11.67;100.00
22047;BME280;11187;49.412;20.956;2022-09-14T05:51:41;94408.25;;;11.76;100.00
22047;BME280;11187;49.412;20.956;2022-09-14T05:54:14;94413.13;;;11.83;100.00
22047;BME280;11187;49.412;20.956;2022-09-14T05:57:01;94410.38;;;11.89;100.00
22047;BME280;11187;49.412;20.956;2022-09-14T05:59:34;94400.84;;;11.93;100.00
22047;BME280;11187;49.412;20.956;2022-09-14T06:02:28;94398.94;;;11.98;100.00
22047;BME280;11187;49.412;20.956;2022-09-14T06:05:22;94397.00;;;12.05;100.00
22047;BME280;11187;49.412;20.956;2022-09-14T06:07:57;94393.44;;;12.09;100.00
22047;BME280;11187;49.412;20.956;2022-09-14T06:10:44;94392.31;;;12.16;100.00
22047;BME280;11187;49.412;20.956;2022-09-14T06:13:17;94384.41;;;12.22;100.00
22047;BME280;11187;49.412;20.956;2022-09-14T06:16:10;94386.56;;;12.33;100.00
22047;BME280;11187;49.412;20.956;2022-09-14T06:18:44;94389.66;;;12.43;100.00
22047;BME280;11187;49.412;20.956;2022-09-14T06:21:33;94381.59;;;12.52;100.00
22047;BME280;11187;49.412;20.956;2022-09-14T06:24:27;94391.56;;;12.60;100.00
22047;BME280;11187;49.412;20.956;2022-09-14T06:27:21;94393.00;;;12.67;100.00
22047;BME280;11187;49.412;20.956;2022-09-14T06:29:54;94393.69;;;12.72;100.00
22047;BME280;11187;49.412;20.956;2022-09-14T06:32:41;94399.47;;;12.77;100.00
22047;BME280;11187;49.412;20.956;2022-09-14T06:35:14;94405.28;;;12.82;100.00
22047;BME280;11187;49.412;20.956;2022-09-14T06:38:01;94402.66;;;12.84;100.00
22047;BME280;11187;49.412;20.956;2022-09-14T06:40:34;94400.78;;;12.87;100.00
22047;BME280;11187;49.412;20.956;2022-09-14T06:43:25;94398.94;;;12.91;100.00
22047;BME280;11187;49.412;20.956;2022-09-14T06:46:04;94397.97;;;12.93;100.00
22047;BME280;11187;49.412;20.956;2022-09-14T06:49:07;94402.94;;;12.98;100.00
22047;BME280;11187;49.412;20.956;2022-09-14T06:51:43;94399.41;;;13.01;100.00
22047;BME280;11187;49.412;20.956;2022-09-14T06:54:37;94394.19;;;13.04;100.00
22047;BME280;11187;49.412;20.956;2022-09-14T06:57:10;94399.19;;;13.07;100.00
22047;BME280;11187;49.412;20.956;2022-09-14T06:59:57;94399.81;;;13.12;100.00
22047;BME280;11187;49.412;20.956;2022-09-14T07:02:30;94404.88;;;13.15;100.00
22047;BME280;11187;49.412;20.956;2022-09-14T07:05:24;94400.38;;;13.20;100.00
22047;BME280;11187;49.412;20.956;2022-09-14T07:08:18;94406.09;;;13.27;100.00
22047;BME280;11187;49.412;20.956;2022-09-14T07:10:56;94405.81;;;13.34;100.00
22047;BME280;11187;49.412;20.956;2022-09-14T07:13:44;94408.97;;;13.41;100.00
22047;BME280;11187;49.412;20.956;2022-09-14T07:16:17;94403.50;;;13.49;100.00
22047;BME280;11187;49.412;20.956;2022-09-14T07:19:10;94398.94;;;13.55;100.00
22047;BME280;11187;49.412;20.956;2022-09-14T07:21:44;94395.25;;;13.63;100.00
22047;BME280;11187;49.412;20.956;2022-09-14T07:24:33;94400.00;;;13.72;100.00
22047;BME280;11187;49.412;20.956;2022-09-14T07:27:06;94402.03;;;13.84;100.00
22047;BME280;11187;49.412;20.956;2022-09-14T07:29:53;94407.50;;;13.97;100.00
22047;BME280;11187;49.412;20.956;2022-09-14T07:32:28;94415.53;;;14.10;100.00
22047;BME280;11187;49.412;20.956;2022-09-14T07:35:15;94415.84;;;14.23;100.00
22047;BME280;11187;49.412;20.956;2022-09-14T07:37:48;94412.09;;;14.30;100.00
22047;BME280;11187;49.412;20.956;2022-09-14T07:40:35;94420.22;;;14.39;100.00
22047;BME280;11187;49.412;20.956;2022-09-14T07:43:08;94413.94;;;14.47;100.00
22047;BME280;11187;49.412;20.956;2022-09-14T07:46:03;94422.28;;;14.52;99.90
22047;BME280;11187;49.412;20.956;2022-09-14T07:48:59;94422.94;;;14.57;99.61
22047;BME280;11187;49.412;20.956;2022-09-14T07:51:33;94415.06;;;14.60;99.46
22047;BME280;11187;49.412;20.956;2022-09-14T07:54:27;94411.38;;;14.66;98.31
22047;BME280;11187;49.412;20.956;2022-09-14T07:57:00;94413.75;;;14.70;98.52
22047;BME280;11187;49.412;20.956;2022-09-14T07:59:47;94403.22;;;14.75;98.58
22047;BME280;11187;49.412;20.956;2022-09-14T08:02:20;94401.34;;;14.78;98.74
22047;BME280;11187;49.412;20.956;2022-09-14T08:05:08;94402.03;;;14.82;97.84
22047;BME280;11187;49.412;20.956;2022-09-14T08:07:41;94401.00;;;14.86;98.45
22047;BME280;11187;49.412;20.956;2022-09-14T08:10:35;94396.59;;;14.88;98.15
22047;BME280;11187;49.412;20.956;2022-09-14T08:13:29;94389.53;;;14.92;98.71
22047;BME280;11187;49.412;20.956;2022-09-14T08:16:25;94393.59;;;14.97;98.75
22047;BME280;11187;49.412;20.956;2022-09-14T08:19:00;94400.28;;;15.01;97.98
22047;BME280;11187;49.412;20.956;2022-09-14T08:21:49;94393.22;;;15.05;97.47
22047;BME280;11187;49.412;20.956;2022-09-14T08:24:43;94394.59;;;15.12;98.10
22047;BME280;11187;49.412;20.956;2022-09-14T08:27:37;94391.88;;;15.15;98.01
22047;BME280;11187;49.412;20.956;2022-09-14T08:30:32;94396.13;;;15.16;97.66
22047;BME280;11187;49.412;20.956;2022-09-14T08:33:06;94391.78;;;15.17;97.12
22047;BME280;11187;49.412;20.956;2022-09-14T08:35:52;94388.16;;;15.21;96.23
22047;BME280;11187;49.412;20.956;2022-09-14T08:38:26;94391.38;;;15.26;96.15
22047;BME280;11187;49.412;20.956;2022-09-14T08:44:34;94396.75;;;15.39;95.32
22047;BME280;11187;49.412;20.956;2022-09-14T08:47:26;94390.47;;;15.44;95.04
22047;BME280;11187;49.412;20.956;2022-09-14T08:50:22;94385.84;;;15.51;94.67
22047;BME280;11187;49.412;20.956;2022-09-14T08:53:17;94384.72;;;15.57;94.36
22047;BME280;11187;49.412;20.956;2022-09-14T09:08:32;94384.09;;;16.04;94.73
22047;BME280;11187;49.412;20.956;2022-09-14T09:11:17;94373.94;;;16.17;93.94
22047;BME280;11187;49.412;20.956;2022-09-14T09:14:28;94372.50;;;16.28;93.33
22047;BME280;11187;49.412;20.956;2022-09-14T09:17:15;94368.56;;;16.37;93.16
22047;BME280;11187;49.412;20.956;2022-09-14T09:22:57;94377.44;;;16.49;92.73
22047;BME280;11187;49.412;20.956;2022-09-14T09:25:57;94371.09;;;16.55;92.42
22047;BME280;11187;49.412;20.956;2022-09-14T09:28:55;94372.59;;;16.59;92.29
22047;BME280;11187;49.412;20.956;2022-09-14T09:31:36;94373.38;;;16.61;92.09
22047;BME280;11187;49.412;20.956;2022-09-14T09:34:28;94371.53;;;16.63;91.42
22047;BME280;11187;49.412;20.956;2022-09-14T09:37:01;94373.13;;;16.65;91.02
22047;BME280;11187;49.412;20.956;2022-09-14T09:39:49;94366.94;;;16.68;91.43
22047;BME280;11187;49.412;20.956;2022-09-14T09:42:24;94369.53;;;16.68;91.44
22047;BME280;11187;49.412;20.956;2022-09-14T09:45:18;94366.00;;;16.69;91.13
22047;BME280;11187;49.412;20.956;2022-09-14T09:48:13;94364.19;;;16.71;90.98
22047;BME280;11187;49.412;20.956;2022-09-14T09:51:13;94364.19;;;16.71;91.26
22047;BME280;11187;49.412;20.956;2022-09-14T09:56:57;94362.44;;;16.72;91.51
22047;BME280;11187;49.412;20.956;2022-09-14T09:59:33;94359.00;;;16.71;91.87
22047;BME280;11187;49.412;20.956;2022-09-14T10:02:29;94358.34;;;16.67;92.45
22047;BME280;11187;49.412;20.956;2022-09-14T10:05:24;94360.94;;;16.67;92.97
22047;BME280;11187;49.412;20.956;2022-09-14T10:08:18;94365.28;;;16.67;93.49
22047;BME280;11187;49.412;20.956;2022-09-14T10:10:51;94360.19;;;16.65;93.71
22047;BME280;11187;49.412;20.956;2022-09-14T10:13:38;94367.13;;;16.65;93.46
22047;BME280;11187;49.412;20.956;2022-09-14T10:16:15;94362.78;;;16.65;93.55
22047;BME280;11187;49.412;20.956;2022-09-14T10:19:17;94369.78;;;16.63;93.49
22047;BME280;11187;49.412;20.956;2022-09-14T10:22:26;94369.84;;;16.62;93.50
22047;BME280;11187;49.412;20.956;2022-09-14T10:25:25;94374.13;;;16.63;93.48
22047;BME280;11187;49.412;20.956;2022-09-14T10:28:25;94375.78;;;16.64;93.90
22047;BME280;11187;49.412;20.956;2022-09-14T10:33:54;94367.25;;;16.62;94.97
22047;BME280;11187;49.412;20.956;2022-09-14T10:36:36;94365.59;;;16.61;95.38
22047;BME280;11187;49.412;20.956;2022-09-14T10:39:43;94356.28;;;16.58;95.64
22047;BME280;11187;49.412;20.956;2022-09-14T10:45:33;94362.34;;;16.57;96.61
22047;BME280;11187;49.412;20.956;2022-09-14T10:51:21;94370.28;;;16.54;96.40
22047;BME280;11187;49.412;20.956;2022-09-14T10:57:19;94367.88;;;16.51;97.64
22047;BME280;11187;49.412;20.956;2022-09-14T11:00:18;94364.53;;;16.49;98.07
22047;BME280;11187;49.412;20.956;2022-09-14T11:03:12;94366.25;;;16.48;98.62
22047;BME280;11187;49.412;20.956;2022-09-14T11:15:13;94369.06;;;16.44;99.57
22047;BME280;11187;49.412;20.956;2022-09-14T11:18:17;94370.19;;;16.40;100.00
22047;BME280;11187;49.412;20.956;2022-09-14T11:21:28;94362.69;;;16.35;100.00
22047;BME280;11187;49.412;20.956;2022-09-14T11:24:40;94367.22;;;16.30;100.00
22047;BME280;11187;49.412;20.956;2022-09-14T11:30:40;94354.56;;;16.25;100.00
22047;BME280;11187;49.412;20.956;2022-09-14T11:33:39;94350.47;;;16.21;100.00
22047;BME280;11187;49.412;20.956;2022-09-14T11:36:42;94341.22;;;16.17;100.00
22047;BME280;11187;49.412;20.956;2022-09-14T11:39:36;94340.47;;;16.15;100.00
22047;BME280;11187;49.412;20.956;2022-09-14T11:42:31;94346.63;;;16.13;100.00
22047;BME280;11187;49.412;20.956;2022-09-14T11:45:13;94338.03;;;16.12;100.00
22047;BME280;11187;49.412;20.956;2022-09-14T11:48:15;94341.63;;;16.10;100.00
22047;BME280;11187;49.412;20.956;2022-09-14T11:51:14;94340.84;;;16.07;100.00
22047;BME280;11187;49.412;20.956;2022-09-14T11:54:09;94344.38;;;16.06;100.00
22047;BME280;11187;49.412;20.956;2022-09-14T11:56:48;94337.63;;;16.04;100.00
22047;BME280;11187;49.412;20.956;2022-09-14T12:17:25;94318.44;;;15.92;100.00
22047;BME280;11187;49.412;20.956;2022-09-14T12:23:41;94309.94;;;15.90;100.00
22047;BME280;11187;49.412;20.956;2022-09-14T12:26:37;94310.00;;;15.89;100.00
22047;BME280;11187;49.412;20.956;2022-09-14T12:29:26;94306.69;;;15.86;100.00
22047;BME280;11187;49.412;20.956;2022-09-14T12:32:26;94297.34;;;15.84;100.00
22047;BME280;11187;49.412;20.956;2022-09-14T12:43:57;94291.44;;;15.82;100.00
22047;BME280;11187;49.412;20.956;2022-09-14T12:46:44;94287.19;;;15.81;100.00
22047;BME280;11187;49.412;20.956;2022-09-14T12:49:29;94290.78;;;15.78;100.00
22047;BME280;11187;49.412;20.956;2022-09-14T12:55:57;94309.97;;;15.73;100.00
22047;BME280;11187;49.412;20.956;2022-09-14T13:04:20;94295.44;;;15.70;100.00
22047;BME280;11187;49.412;20.956;2022-09-14T13:07:14;94295.44;;;15.70;100.00
22047;BME280;11187;49.412;20.956;2022-09-14T13:09:55;94304.06;;;15.71;100.00
22047;BME280;11187;49.412;20.956;2022-09-14T13:12:50;94303.19;;;15.70;100.00
22047;BME280;11187;49.412;20.956;2022-09-14T13:15:54;94312.75;;;15.68;100.00
22047;BME280;11187;49.412;20.956;2022-09-14T13:18:48;94316.25;;;15.67;100.00
22047;BME280;11187;49.412;20.956;2022-09-14T13:21:47;94328.31;;;15.66;100.00
22047;BME280;11187;49.412;20.956;2022-09-14T13:24:43;94319.06;;;15.62;100.00
22047;BME280;11187;49.412;20.956;2022-09-14T13:27:23;94318.22;;;15.62;100.00
22047;BME280;11187;49.412;20.956;2022-09-14T13:32:46;94320.03;;;15.60;100.00
22047;BME280;11187;49.412;20.956;2022-09-14T13:35:37;94308.13;;;15.57;100.00
22047;BME280;11187;49.412;20.956;2022-09-14T13:38:22;94305.56;;;15.57;100.00
22047;BME280;11187;49.412;20.956;2022-09-14T13:41:17;94299.63;;;15.55;100.00
22047;BME280;11187;49.412;20.956;2022-09-14T13:44:11;94299.72;;;15.54;100.00
22047;BME280;11187;49.412;20.956;2022-09-14T13:46:44;94287.66;;;15.54;100.00
22047;BME280;11187;49.412;20.956;2022-09-14T13:49:33;94285.09;;;15.54;100.00
22047;BME280;11187;49.412;20.956;2022-09-14T13:58:29;94267.19;;;15.51;100.00
22047;BME280;11187;49.412;20.956;2022-09-14T14:01:25;94265.50;;;15.50;100.00
22047;BME280;11187;49.412;20.956;2022-09-14T14:04:30;94260.34;;;15.50;100.00
22047;BME280;11187;49.412;20.956;2022-09-14T14:07:17;94259.53;;;15.50;100.00
22047;BME280;11187;49.412;20.956;2022-09-14T14:10:04;94255.25;;;15.49;100.00
22047;BME280;11187;49.412;20.956;2022-09-14T14:12:45;94255.19;;;15.50;100.00
22047;BME280;11187;49.412;20.956;2022-09-14T14:15:41;94260.34;;;15.50;100.00
22047;BME280;11187;49.412;20.956;2022-09-14T14:18:39;94249.13;;;15.51;100.00
22047;BME280;11187;49.412;20.956;2022-09-14T14:21:25;94253.44;;;15.51;100.00
22047;BME280;11187;49.412;20.956;2022-09-14T14:24:26;94238.81;;;15.51;100.00
22047;BME280;11187;49.412;20.956;2022-09-14T14:30:20;94228.56;;;15.50;100.00
22047;BME280;11187;49.412;20.956;2022-09-14T14:32:55;94219.06;;;15.50;100.00
22047;BME280;11187;49.412;20.956;2022-09-14T14:35:49;94214.84;;;15.49;100.00
22047;BME280;11187;49.412;20.956;2022-09-14T14:38:25;94220.91;;;15.48;100.00
22047;BME280;11187;49.412;20.956;2022-09-14T14:41:18;94223.47;;;15.48;100.00
22047;BME280;11187;49.412;20.956;2022-09-14T14:43:52;94211.41;;;15.49;100.00
22047;BME280;11187;49.412;20.956;2022-09-14T14:46:47;94209.69;;;15.49;100.00
22047;BME280;11187;49.412;20.956;2022-09-14T14:49:40;94200.25;;;15.48;100.00
22047;BME280;11187;49.412;20.956;2022-09-14T14:52:34;94196.78;;;15.49;100.00
22047;BME280;11187;49.412;20.956;2022-09-14T14:55:08;94197.69;;;15.48;100.00
22047;BME280;11187;49.412;20.956;2022-09-14T14:57:57;94203.75;;;15.47;100.00
22047;BME280;11187;49.412;20.956;2022-09-14T15:00:34;94199.50;;;15.46;100.00
22047;BME280;11187;49.412;20.956;2022-09-14T15:03:28;94201.25;;;15.45;100.00
22047;BME280;11187;49.412;20.956;2022-09-14T15:06:25;94209.16;;;15.42;100.00
22047;BME280;11187;49.412;20.956;2022-09-14T15:08:58;94213.50;;;15.42;100.00
22047;BME280;11187;49.412;20.956;2022-09-14T15:11:49;94217.78;;;15.41;100.00
22047;BME280;11187;49.412;20.956;2022-09-14T15:14:24;94214.47;;;15.39;100.00
22047;BME280;11187;49.412;20.956;2022-09-14T15:17:18;94204.16;;;15.39;100.00
22047;BME280;11187;49.412;20.956;2022-09-14T15:19:51;94199.09;;;15.38;100.00
22047;BME280;11187;49.412;20.956;2022-09-14T15:22:38;94196.56;;;15.36;100.00
22047;BME280;11187;49.412;20.956;2022-09-14T15:25:32;94199.31;;;15.33;100.00
22047;BME280;11187;49.412;20.956;2022-09-14T15:28:26;94193.47;;;15.30;100.00
22047;BME280;11187;49.412;20.956;2022-09-14T15:31:23;94195.22;;;15.29;100.00
22047;BME280;11187;49.412;20.956;2022-09-14T15:34:17;94188.50;;;15.27;100.00
22047;BME280;11187;49.412;20.956;2022-09-14T15:37:12;94189.50;;;15.24;100.00
22047;BME280;11187;49.412;20.956;2022-09-14T15:39:44;94198.94;;;15.23;100.00
22047;BME280;11187;49.412;20.956;2022-09-14T15:42:31;94198.19;;;15.21;100.00
22047;BME280;11187;49.412;20.956;2022-09-14T15:45:05;94198.28;;;15.20;100.00
22047;BME280;11187;49.412;20.956;2022-09-14T15:47:59;94196.59;;;15.19;100.00
22047;BME280;11187;49.412;20.956;2022-09-14T15:50:32;94199.28;;;15.17;100.00
22047;BME280;11187;49.412;20.956;2022-09-14T15:53:26;94188.97;;;15.17;100.00
22047;BME280;11187;49.412;20.956;2022-09-14T15:56:00;94197.59;;;15.16;100.00
22047;BME280;11187;49.412;20.956;2022-09-14T15:58:46;94202.91;;;15.13;100.00
22047;BME280;11187;49.412;20.956;2022-09-14T16:01:20;94194.25;;;15.14;100.00
22047;BME280;11187;49.412;20.956;2022-09-14T16:04:06;94200.34;;;15.13;100.00
22047;BME280;11187;49.412;20.956;2022-09-14T16:06:40;94193.50;;;15.12;100.00
22047;BME280;11187;49.412;20.956;2022-09-14T16:09:27;94192.59;;;15.13;100.00
22047;BME280;11187;49.412;20.956;2022-09-14T16:12:01;94188.34;;;15.12;100.00
22047;BME280;11187;49.412;20.956;2022-09-14T16:14:54;94196.06;;;15.12;100.00
22047;BME280;11187;49.412;20.956;2022-09-14T16:17:50;94180.72;;;15.11;100.00
22047;BME280;11187;49.412;20.956;2022-09-14T16:20:24;94191.03;;;15.11;100.00